createdAt,value
2022-11-15T00:00:11.122Z,10.90
2022-11-15T00:02:56.341Z,11.00
2022-11-15T00:05:41.522Z,10.90
2022-11-15T00:08:27.222Z,10.90
2022-11-15T00:11:12.876Z,10.80
2022-11-15T00:13:58.253Z,10.80
2022-11-15T00:16:43.299Z,10.80
2022-11-15T00:19:28.441Z,10.80
2022-11-15T00:22:13.378Z,10.80
2022-11-15T00:24:58.424Z,10.80
2022-11-15T00:27:43.623Z,10.70
2022-11-15T00:30:28.650Z,10.70
2022-11-15T00:33:13.730Z,10.70
2022-11-15T00:35:58.860Z,10.70
2022-11-15T00:38:44.053Z,10.70
2022-11-15T00:41:29.528Z,10.60
2022-11-15T00:44:14.679Z,10.60
2022-11-15T00:46:59.796Z,10.60
2022-11-15T00:49:44.691Z,10.60
2022-11-15T00:52:29.835Z,10.60
2022-11-15T00:55:15.625Z,10.60
2022-11-15T00:58:00.847Z,10.60
2022-11-15T01:00:46.577Z,10.60
2022-11-15T01:03:32.185Z,10.60
2022-11-15T01:06:17.503Z,10.60
2022-11-15T01:09:02.366Z,10.60
2022-11-15T01:11:47.477Z,10.60
2022-11-15T01:14:32.439Z,10.60
2022-11-15T01:17:17.330Z,10.60
2022-11-15T01:20:02.502Z,10.60
2022-11-15T01:22:47.504Z,10.60
2022-11-15T01:25:32.743Z,10.60
2022-11-15T01:28:17.777Z,10.60
2022-11-15T01:31:02.871Z,10.60
2022-11-15T01:33:47.756Z,10.60
2022-11-15T01:36:33.312Z,10.60
2022-11-15T01:39:18.342Z,10.60
2022-11-15T01:42:03.583Z,10.60
2022-11-15T01:44:48.837Z,10.60
2022-11-15T01:47:34.047Z,10.60
2022-11-15T01:50:19.064Z,10.60
2022-11-15T01:53:04.013Z,10.60
2022-11-15T01:55:49.138Z,10.60
2022-11-15T01:58:34.609Z,10.60
2022-11-15T02:01:19.634Z,10.60
2022-11-15T02:04:05.051Z,10.60
2022-11-15T02:06:50.724Z,10.50
2022-11-15T02:09:36.312Z,10.50
2022-11-15T02:12:21.828Z,10.50
2022-11-15T02:15:06.951Z,10.50
2022-11-15T02:17:51.989Z,10.50
2022-11-15T02:20:37.102Z,10.50
2022-11-15T02:23:22.189Z,10.50
2022-11-15T02:26:08.596Z,10.50
2022-11-15T02:28:53.828Z,10.50
2022-11-15T02:31:38.917Z,10.50
2022-11-15T02:34:24.453Z,10.60
2022-11-15T02:37:10.069Z,10.50
2022-11-15T02:39:55.071Z,10.50
2022-11-15T02:42:59.800Z,10.50
2022-11-15T02:45:47.516Z,10.50
2022-11-15T02:48:32.472Z,10.50
2022-11-15T02:51:17.545Z,10.50
2022-11-15T02:54:02.644Z,10.40
2022-11-15T02:56:47.666Z,10.40
2022-11-15T02:59:32.561Z,10.40
2022-11-15T03:02:17.630Z,10.40
2022-11-15T03:05:02.686Z,10.40
2022-11-15T03:07:47.745Z,10.40
2022-11-15T03:10:33.333Z,10.40
2022-11-15T03:13:18.343Z,10.40
2022-11-15T03:16:03.885Z,10.50
2022-11-15T03:18:48.907Z,10.50
2022-11-15T03:21:33.897Z,10.50
2022-11-15T03:24:23.288Z,10.50
2022-11-15T03:27:11.212Z,10.60
2022-11-15T03:29:56.149Z,10.60
2022-11-15T03:32:41.170Z,10.60
2022-11-15T03:35:26.033Z,10.70
2022-11-15T03:38:11.149Z,10.70
2022-11-15T03:40:56.618Z,10.70
2022-11-15T03:43:41.544Z,10.70
2022-11-15T03:46:26.585Z,10.80
2022-11-15T03:49:11.663Z,10.80
2022-11-15T03:51:56.760Z,10.70
2022-11-15T03:54:41.782Z,10.80
2022-11-15T03:57:27.441Z,10.70
2022-11-15T04:00:12.521Z,10.70
2022-11-15T04:02:57.401Z,10.70
2022-11-15T04:05:42.530Z,10.70
2022-11-15T04:08:27.499Z,10.70
2022-11-15T04:11:12.605Z,10.70
2022-11-15T04:13:57.529Z,10.70
2022-11-15T04:16:44.090Z,10.70
2022-11-15T04:19:48.527Z,10.70
2022-11-15T04:22:52.680Z,10.70
2022-11-15T04:25:37.854Z,10.80
2022-11-15T04:28:23.000Z,10.80
2022-11-15T04:31:08.045Z,10.80
2022-11-15T04:33:53.247Z,10.90
2022-11-15T04:36:57.022Z,10.90
2022-11-15T04:39:42.131Z,11.00
2022-11-15T04:42:27.215Z,11.00
2022-11-15T04:45:12.733Z,11.10
2022-11-15T04:47:57.828Z,11.20
2022-11-15T04:50:42.887Z,11.20
2022-11-15T04:53:27.907Z,11.30
2022-11-15T04:56:13.056Z,11.30
2022-11-15T04:58:57.970Z,11.30
2022-11-15T05:01:44.996Z,11.40
2022-11-15T05:04:30.700Z,11.40
2022-11-15T05:07:15.803Z,11.40
2022-11-15T05:10:01.294Z,11.50
2022-11-15T05:12:46.244Z,11.50
2022-11-15T05:15:31.256Z,11.50
2022-11-15T05:18:20.697Z,11.50
2022-11-15T05:21:08.289Z,11.60
2022-11-15T05:23:53.316Z,11.60
2022-11-15T05:26:38.270Z,11.70
2022-11-15T05:29:23.235Z,11.70
2022-11-15T05:32:08.279Z,11.80
2022-11-15T05:34:53.324Z,11.80
2022-11-15T05:37:38.397Z,11.80
2022-11-15T05:40:23.585Z,11.80
2022-11-15T05:43:08.524Z,11.80
2022-11-15T05:45:53.371Z,11.90
2022-11-15T05:48:38.487Z,11.90
2022-11-15T05:51:23.699Z,11.90
2022-11-15T05:54:08.724Z,11.90
2022-11-15T05:56:53.890Z,11.90
2022-11-15T05:59:39.185Z,11.90
2022-11-15T06:02:24.611Z,12.00
2022-11-15T06:05:10.090Z,12.00
2022-11-15T06:07:55.752Z,12.00
2022-11-15T06:10:40.877Z,12.00
2022-11-15T06:13:25.842Z,12.00
2022-11-15T06:16:10.877Z,12.00
2022-11-15T06:18:58.386Z,12.00
2022-11-15T06:21:43.902Z,12.00
2022-11-15T06:24:29.001Z,12.00
2022-11-15T06:27:14.106Z,12.10
2022-11-15T06:29:59.221Z,12.00
2022-11-15T06:32:44.031Z,12.10
2022-11-15T06:35:29.260Z,12.10
2022-11-15T06:38:14.240Z,12.10
2022-11-15T06:40:59.239Z,12.10
2022-11-15T06:43:44.750Z,12.10
2022-11-15T06:46:29.823Z,12.10
2022-11-15T06:49:15.349Z,12.10
2022-11-15T06:52:00.360Z,12.10
2022-11-15T06:54:45.917Z,12.10
2022-11-15T06:57:30.934Z,12.10
2022-11-15T07:00:15.914Z,12.10
2022-11-15T07:03:01.080Z,12.10
2022-11-15T07:05:45.948Z,12.10
2022-11-15T07:08:31.110Z,12.00
2022-11-15T07:11:16.070Z,12.00
2022-11-15T07:14:01.179Z,12.00
2022-11-15T07:16:46.193Z,12.00
2022-11-15T07:19:31.125Z,12.00
2022-11-15T07:22:16.144Z,12.00
2022-11-15T07:25:01.171Z,12.00
2022-11-15T07:27:46.727Z,11.90
2022-11-15T07:30:32.172Z,11.90
2022-11-15T07:33:17.575Z,12.00
2022-11-15T07:36:02.767Z,12.00
2022-11-15T07:38:47.817Z,12.00
2022-11-15T07:41:32.861Z,11.90
2022-11-15T07:44:18.541Z,11.90
2022-11-15T07:47:04.112Z,11.90
2022-11-15T07:49:49.195Z,11.90
2022-11-15T07:52:34.410Z,11.80
2022-11-15T07:55:20.083Z,11.80
2022-11-15T07:58:05.218Z,11.80
2022-11-15T08:00:50.708Z,11.80
2022-11-15T08:03:35.813Z,11.80
2022-11-15T08:06:21.081Z,11.80
2022-11-15T08:09:06.118Z,11.80
2022-11-15T08:11:51.283Z,11.80
2022-11-15T08:14:36.919Z,11.70
2022-11-15T08:17:22.456Z,11.70
2022-11-15T08:20:07.623Z,11.70
2022-11-15T08:22:52.689Z,11.80
2022-11-15T08:25:37.929Z,11.80
2022-11-15T08:28:22.963Z,11.80
2022-11-15T08:31:08.564Z,11.80
2022-11-15T08:33:54.083Z,11.80
2022-11-15T08:36:45.753Z,11.80
2022-11-15T08:39:31.662Z,11.80
2022-11-15T08:42:19.999Z,11.90
2022-11-15T08:45:05.265Z,11.90
2022-11-15T08:47:54.220Z,11.90
2022-11-15T08:50:39.956Z,11.90
2022-11-15T08:53:25.052Z,11.90
2022-11-15T08:56:10.111Z,12.00
2022-11-15T08:58:55.260Z,11.90
2022-11-15T09:01:40.726Z,12.00
2022-11-15T09:04:26.326Z,12.00
2022-11-15T09:07:11.848Z,12.10
2022-11-15T09:09:57.370Z,12.10
2022-11-15T09:12:43.091Z,12.10
2022-11-15T09:15:28.149Z,12.10
2022-11-15T09:18:13.047Z,12.10
2022-11-15T09:20:58.224Z,12.10
2022-11-15T09:23:43.695Z,12.20
2022-11-15T09:26:29.267Z,12.20
2022-11-15T09:29:14.396Z,12.20
2022-11-15T09:31:59.488Z,12.20
2022-11-15T09:34:45.051Z,12.20
2022-11-15T09:37:30.452Z,12.20
2022-11-15T09:40:17.495Z,12.20
2022-11-15T09:43:04.175Z,12.20
2022-11-15T09:45:49.191Z,12.20
2022-11-15T09:48:34.517Z,12.20
2022-11-15T09:51:24.767Z,12.20
2022-11-15T09:56:38.471Z,12.30
2022-11-15T09:59:05.198Z,12.30
2022-11-15T10:01:31.942Z,12.30
2022-11-15T10:04:00.194Z,12.30
2022-11-15T10:06:26.890Z,12.30
2022-11-15T10:08:53.610Z,12.30
2022-11-15T10:11:37.714Z,12.30
2022-11-15T10:14:05.476Z,12.30
2022-11-15T10:16:32.179Z,12.30
2022-11-15T10:18:58.911Z,12.30
2022-11-15T10:21:25.588Z,12.30
2022-11-15T10:23:52.367Z,12.40
2022-11-15T10:26:19.121Z,12.40
2022-11-15T10:28:45.960Z,12.40
2022-11-15T10:31:14.470Z,12.40
2022-11-15T10:33:42.229Z,12.40
2022-11-15T10:36:08.967Z,12.40
2022-11-15T10:38:35.608Z,12.50
2022-11-15T10:41:02.265Z,12.50
2022-11-15T10:43:28.972Z,12.50
2022-11-15T10:45:55.617Z,12.50
2022-11-15T10:48:22.735Z,12.50
2022-11-15T10:50:49.408Z,12.50
2022-11-15T10:53:16.083Z,12.50
2022-11-15T10:55:42.828Z,12.60
2022-11-15T10:58:09.493Z,12.60
2022-11-15T11:00:36.326Z,12.60
2022-11-15T11:03:03.043Z,12.60
2022-11-15T11:05:30.131Z,12.70
2022-11-15T11:07:56.804Z,12.70
2022-11-15T11:10:49.890Z,12.70
2022-11-15T11:13:10.186Z,12.70
2022-11-15T11:15:36.868Z,12.70
2022-11-15T11:18:03.584Z,12.70
2022-11-15T11:20:30.291Z,12.70
2022-11-15T11:22:57.026Z,12.70
2022-11-15T11:25:23.666Z,12.70
2022-11-15T11:27:50.384Z,12.80
2022-11-15T11:30:17.430Z,12.80
2022-11-15T11:32:44.085Z,12.80
2022-11-15T11:35:10.804Z,12.80
2022-11-15T11:37:37.561Z,12.80
2022-11-15T11:40:10.304Z,12.80
2022-11-15T11:42:37.512Z,12.80
2022-11-15T11:45:04.150Z,12.80
2022-11-15T11:47:30.829Z,12.70
2022-11-15T11:49:57.531Z,12.80
2022-11-15T11:52:24.290Z,12.70
2022-11-15T11:54:51.004Z,12.70
2022-11-15T11:57:17.686Z,12.70
2022-11-15T11:59:44.326Z,12.70
2022-11-15T12:02:11.134Z,12.70
2022-11-15T12:04:37.940Z,12.70
2022-11-15T12:07:04.761Z,12.80
2022-11-15T12:09:31.554Z,12.80
2022-11-15T12:11:58.283Z,12.80
2022-11-15T12:14:24.947Z,12.70
2022-11-15T12:16:51.646Z,12.80
2022-11-15T12:19:18.351Z,12.80
2022-11-15T12:21:45.046Z,12.80
2022-11-15T12:24:11.832Z,12.80
2022-11-15T12:26:38.682Z,12.80
2022-11-15T12:29:07.852Z,12.80
2022-11-15T12:31:35.653Z,12.80
2022-11-15T12:34:07.117Z,12.80
2022-11-15T12:36:34.195Z,12.90
2022-11-15T12:39:01.286Z,12.90
2022-11-15T12:41:28.088Z,12.80
2022-11-15T12:43:54.796Z,12.90
2022-11-15T12:46:22.493Z,12.90
2022-11-15T12:48:49.239Z,12.90
2022-11-15T12:51:15.919Z,12.90
2022-11-15T12:53:42.684Z,12.90
2022-11-15T12:56:09.366Z,13.00
2022-11-15T12:58:36.089Z,13.00
2022-11-15T13:01:02.884Z,13.00
2022-11-15T13:03:29.871Z,13.00
2022-11-15T13:05:56.526Z,13.10
2022-11-15T13:08:23.243Z,13.10
2022-11-15T13:10:49.975Z,13.10
2022-11-15T13:13:16.658Z,13.10
2022-11-15T13:15:43.450Z,13.10
2022-11-15T13:18:10.153Z,13.10
2022-11-15T13:20:36.883Z,13.10
2022-11-15T13:23:03.652Z,13.10
2022-11-15T13:25:30.383Z,13.20
2022-11-15T13:28:00.429Z,13.20
2022-11-15T13:30:30.355Z,13.30
2022-11-15T13:32:57.046Z,13.40
2022-11-15T13:35:23.766Z,13.50
2022-11-15T13:37:50.472Z,13.60
2022-11-15T13:40:17.577Z,13.60
2022-11-15T13:42:45.951Z,13.70
2022-11-15T13:45:12.739Z,13.70
2022-11-15T13:47:39.452Z,13.80
2022-11-15T13:50:12.123Z,13.70
2022-11-15T13:52:40.505Z,13.80
2022-11-15T13:55:09.399Z,13.80
2022-11-15T13:57:36.130Z,13.80
2022-11-15T14:00:03.308Z,13.80
2022-11-15T14:02:38.487Z,13.90
2022-11-15T14:05:12.164Z,13.90
2022-11-15T14:07:44.304Z,13.80
2022-11-15T14:10:11.326Z,13.80
2022-11-15T14:12:38.003Z,13.80
2022-11-15T14:15:04.751Z,13.80
2022-11-15T14:17:31.415Z,13.80
2022-11-15T14:19:58.115Z,13.70
2022-11-15T14:22:26.517Z,13.70
2022-11-15T14:24:53.204Z,13.70
2022-11-15T14:27:19.882Z,13.60
2022-11-15T14:29:46.652Z,13.60
2022-11-15T14:32:13.305Z,13.60
2022-11-15T14:34:40.064Z,13.60
2022-11-15T14:37:06.745Z,13.60
2022-11-15T14:39:33.506Z,13.60
2022-11-15T14:42:00.236Z,13.60
2022-11-15T14:44:26.922Z,13.70
2022-11-15T14:46:53.646Z,13.70
2022-11-15T14:49:20.491Z,13.60
2022-11-15T14:51:47.150Z,13.60
2022-11-15T14:54:13.881Z,13.70
2022-11-15T14:56:41.594Z,13.60
2022-11-15T14:59:08.496Z,13.60
2022-11-15T15:01:35.205Z,13.50
2022-11-15T15:04:01.947Z,13.50
2022-11-15T15:06:28.687Z,13.50
2022-11-15T15:08:55.665Z,13.40
2022-11-15T15:11:22.331Z,13.40
2022-11-15T15:13:49.059Z,13.40
2022-11-15T15:16:15.716Z,13.30
2022-11-15T15:18:42.495Z,13.30
2022-11-15T15:21:09.225Z,13.20
2022-11-15T15:23:36.740Z,13.20
2022-11-15T15:26:03.912Z,13.20
2022-11-15T15:28:34.476Z,13.20
2022-11-15T15:31:01.747Z,13.10
2022-11-15T15:33:28.420Z,13.10
2022-11-15T15:35:55.161Z,13.00
2022-11-15T15:38:22.618Z,13.00
2022-11-15T15:40:51.540Z,12.90
2022-11-15T15:43:18.494Z,12.90
2022-11-15T15:45:46.023Z,12.80
2022-11-15T15:48:12.783Z,12.80
2022-11-15T15:50:39.790Z,12.80
2022-11-15T15:53:06.527Z,12.70
2022-11-15T15:55:33.322Z,12.70
2022-11-15T15:58:00.082Z,12.60
2022-11-15T16:00:26.975Z,12.60
2022-11-15T16:02:53.691Z,12.60
2022-11-15T16:05:20.490Z,12.50
2022-11-15T16:07:48.533Z,12.50
2022-11-15T16:10:15.311Z,12.50
2022-11-15T16:12:41.975Z,12.40
2022-11-15T16:15:08.694Z,12.40
2022-11-15T16:17:35.390Z,12.40
2022-11-15T16:20:02.347Z,12.40
2022-11-15T16:22:30.216Z,12.40
2022-11-15T16:24:57.123Z,12.40
2022-11-15T16:27:23.895Z,12.50
2022-11-15T16:29:50.629Z,12.40
2022-11-15T16:32:17.625Z,12.40
2022-11-15T16:34:48.688Z,12.50
2022-11-15T16:37:16.182Z,12.50
2022-11-15T16:39:42.900Z,12.50
2022-11-15T16:42:09.586Z,12.50
2022-11-15T16:44:36.320Z,12.50
2022-11-15T16:47:03.034Z,12.50
2022-11-15T16:49:29.795Z,12.50
2022-11-15T16:51:56.493Z,12.50
2022-11-15T16:54:23.470Z,12.40
2022-11-15T16:56:50.206Z,12.40
2022-11-15T16:59:17.243Z,12.40
2022-11-15T17:01:50.871Z,12.40
2022-11-15T17:04:18.228Z,12.40
2022-11-15T17:06:44.904Z,12.30
2022-11-15T17:09:11.599Z,12.30
2022-11-15T17:11:38.334Z,12.30
2022-11-15T17:14:05.018Z,12.20
2022-11-15T17:16:31.790Z,12.20
2022-11-15T17:18:58.420Z,12.20
2022-11-15T17:21:31.053Z,12.10
2022-11-15T17:24:00.363Z,12.10
2022-11-15T17:26:32.964Z,12.10
2022-11-15T17:29:02.447Z,12.10
2022-11-15T17:31:30.907Z,12.10
2022-11-15T17:33:57.661Z,12.10
2022-11-15T17:36:24.398Z,12.10
2022-11-15T17:38:57.954Z,12.10
2022-11-15T17:41:26.208Z,12.10
2022-11-15T17:43:53.421Z,12.10
2022-11-15T17:46:20.821Z,12.10
2022-11-15T17:48:47.463Z,12.10
2022-11-15T17:51:14.184Z,12.10
2022-11-15T17:53:40.822Z,12.00
2022-11-15T17:56:07.587Z,12.10
2022-11-15T17:58:34.473Z,12.00
2022-11-15T18:01:01.474Z,12.10
2022-11-15T18:03:28.233Z,12.10
2022-11-15T18:05:54.910Z,12.10
2022-11-15T18:08:23.969Z,12.00
2022-11-15T18:10:50.706Z,12.00
2022-11-15T18:13:17.373Z,12.00
2022-11-15T18:15:44.164Z,12.00
2022-11-15T18:18:10.963Z,11.90
2022-11-15T18:20:37.725Z,11.90
2022-11-15T18:23:04.405Z,11.90
2022-11-15T18:25:31.179Z,11.90
2022-11-15T18:27:57.873Z,11.90
2022-11-15T18:30:24.669Z,11.80
2022-11-15T18:32:52.336Z,11.80
2022-11-15T18:35:19.299Z,11.80
2022-11-15T18:37:45.946Z,11.80
2022-11-15T18:40:12.610Z,11.80
2022-11-15T18:42:39.320Z,11.70
2022-11-15T18:45:06.442Z,11.70
2022-11-15T18:47:33.195Z,11.60
2022-11-15T18:49:59.952Z,11.60
2022-11-15T18:52:26.678Z,11.50
2022-11-15T18:54:53.400Z,11.50
2022-11-15T18:57:20.083Z,11.50
2022-11-15T18:59:46.797Z,11.40
2022-11-15T19:02:13.566Z,11.40
2022-11-15T19:04:40.293Z,11.40
2022-11-15T19:07:07.010Z,11.40
2022-11-15T19:09:33.782Z,11.40
2022-11-15T19:12:00.445Z,11.40
2022-11-15T19:14:27.858Z,11.40
2022-11-15T19:16:55.150Z,11.30
2022-11-15T19:19:21.968Z,11.30
2022-11-15T19:21:48.685Z,11.20
2022-11-15T19:24:15.550Z,11.20
2022-11-15T19:26:42.642Z,11.10
2022-11-15T19:29:13.802Z,11.10
2022-11-15T19:31:40.538Z,11.00
2022-11-15T19:34:07.745Z,11.00
2022-11-15T19:36:34.458Z,11.00
2022-11-15T19:39:02.015Z,10.90
2022-11-15T19:41:28.775Z,10.90
2022-11-15T19:43:55.423Z,10.90
2022-11-15T19:46:23.625Z,10.80
2022-11-15T19:48:50.505Z,10.80
2022-11-15T19:51:19.196Z,10.80
2022-11-15T19:53:45.948Z,10.80
2022-11-15T19:56:12.692Z,10.80
2022-11-15T19:58:39.374Z,10.70
2022-11-15T20:01:06.294Z,10.70
2022-11-15T20:03:33.484Z,10.60
2022-11-15T20:06:00.378Z,10.60
2022-11-15T20:08:27.201Z,10.60
2022-11-15T20:10:53.899Z,10.60
2022-11-15T20:13:20.584Z,10.60
2022-11-15T20:15:47.333Z,10.50
2022-11-15T20:18:14.070Z,10.50
2022-11-15T20:20:40.787Z,10.50
2022-11-15T20:23:07.491Z,10.40
2022-11-15T20:25:34.306Z,10.40
2022-11-15T20:28:00.952Z,10.40
2022-11-15T20:30:27.681Z,10.40
2022-11-15T20:32:54.317Z,10.40
2022-11-15T20:35:20.990Z,10.40
2022-11-15T20:37:48.366Z,10.30
2022-11-15T20:40:15.056Z,10.30
2022-11-15T20:42:41.700Z,10.20
2022-11-15T20:45:08.442Z,10.20
2022-11-15T20:47:35.081Z,10.20
2022-11-15T20:50:20.836Z,10.20
2022-11-15T20:52:48.606Z,10.20
2022-11-15T20:55:15.297Z,10.20
2022-11-15T20:57:41.986Z,10.10
2022-11-15T21:00:08.658Z,10.10
2022-11-15T21:02:35.415Z,10.10
2022-11-15T21:05:02.299Z,10.00
2022-11-15T21:07:29.612Z,10.00
2022-11-15T21:10:14.894Z,10.00
2022-11-15T21:12:41.637Z,10.00
2022-11-15T21:15:08.307Z,10.00
2022-11-15T21:17:34.976Z,10.00
2022-11-15T21:20:01.682Z,9.90
2022-11-15T21:22:28.563Z,10.00
2022-11-15T21:24:58.908Z,9.90
2022-11-15T21:27:25.602Z,9.90
2022-11-15T21:29:52.239Z,9.90
2022-11-15T21:32:19.052Z,9.90
2022-11-15T21:34:45.693Z,9.90
2022-11-15T21:37:12.429Z,9.90
2022-11-15T21:39:39.185Z,9.90
2022-11-15T21:42:05.981Z,9.90
2022-11-15T21:44:32.842Z,9.90
2022-11-15T21:47:00.243Z,9.90
2022-11-15T21:49:26.929Z,9.80
2022-11-15T21:51:53.662Z,9.80
2022-11-15T21:54:20.446Z,9.80
2022-11-15T21:56:47.191Z,9.80
2022-11-15T21:59:13.981Z,9.80
2022-11-15T22:01:59.288Z,9.80
2022-11-15T22:04:26.180Z,9.70
2022-11-15T22:06:52.975Z,9.70
2022-11-15T22:09:19.699Z,9.70
2022-11-15T22:11:46.358Z,9.60
2022-11-15T22:14:13.140Z,9.70
2022-11-15T22:16:39.918Z,9.60
2022-11-15T22:19:06.781Z,9.60
2022-11-15T22:21:33.662Z,9.60
2022-11-15T22:24:00.383Z,9.50
2022-11-15T22:26:27.095Z,9.50
2022-11-15T22:28:53.926Z,9.50
2022-11-15T22:31:20.608Z,9.50
2022-11-15T22:33:47.452Z,9.50
2022-11-15T22:36:14.119Z,9.50
2022-11-15T22:38:40.959Z,9.50
2022-11-15T22:41:07.699Z,9.50
2022-11-15T22:43:34.435Z,9.50
2022-11-15T22:46:01.134Z,9.40
2022-11-15T22:48:28.024Z,9.40
2022-11-15T22:50:54.691Z,9.40
2022-11-15T22:53:21.422Z,9.40
2022-11-15T22:55:48.094Z,9.40
2022-11-15T22:58:14.787Z,9.30
2022-11-15T23:00:41.514Z,9.40
2022-11-15T23:03:08.228Z,9.40
2022-11-15T23:05:34.956Z,9.50
2022-11-15T23:08:01.785Z,9.50
2022-11-15T23:10:47.257Z,9.50
2022-11-15T23:13:17.224Z,9.60
2022-11-15T23:16:02.928Z,9.50
2022-11-15T23:18:29.771Z,9.50
2022-11-15T23:20:56.525Z,9.50
2022-11-15T23:23:23.382Z,9.50
2022-11-15T23:25:50.103Z,9.50
2022-11-15T23:28:24.339Z,9.50
2022-11-15T23:31:10.012Z,9.50
2022-11-15T23:33:55.514Z,9.50
2022-11-15T23:36:22.343Z,9.60
2022-11-15T23:38:49.181Z,9.60
2022-11-15T23:41:15.937Z,9.60
2022-11-15T23:43:42.667Z,9.60
2022-11-15T23:46:09.659Z,9.60
2022-11-15T23:48:36.413Z,9.70
2022-11-15T23:51:03.154Z,9.70
2022-11-15T23:53:29.914Z,9.70
2022-11-15T23:55:56.639Z,9.70
2022-11-15T23:58:23.347Z,9.70
